createdAt,value
2018-03-21T00:02:03.511Z,98813.96
2018-03-21T00:04:32.616Z,98816.84
2018-03-21T00:07:01.737Z,98815.69
2018-03-21T00:09:30.760Z,98819.51
2018-03-21T00:11:59.879Z,98819.84
2018-03-21T00:14:29.425Z,98830.59
2018-03-21T00:16:58.514Z,98823.84
2018-03-21T00:19:27.537Z,98832.44
2018-03-21T00:21:56.595Z,98831.71
2018-03-21T00:24:25.571Z,98832.52
2018-03-21T00:26:54.517Z,98838.02
2018-03-21T00:29:24.498Z,98838.59
2018-03-21T00:31:53.624Z,98850.77
2018-03-21T00:40:06.627Z,98851.63
2018-03-21T00:42:37.252Z,98859.02
2018-03-21T00:45:08.592Z,98866.41
2018-03-21T00:47:39.268Z,98865.48
2018-03-21T00:50:11.459Z,98865.52
2018-03-21T00:52:42.321Z,98873.70
2018-03-21T00:55:12.863Z,98859.72
2018-03-21T00:57:43.558Z,98867.50
2018-03-21T01:00:14.321Z,98863.04
2018-03-21T01:02:45.011Z,98869.07
2018-03-21T01:05:15.635Z,98868.79
2018-03-21T01:07:50.636Z,98867.10
2018-03-21T01:10:21.192Z,98874.53
2018-03-21T01:12:51.837Z,98877.17
2018-03-21T01:15:22.633Z,98874.18
2018-03-21T01:17:53.208Z,98877.18
2018-03-21T01:20:23.787Z,98884.02
2018-03-21T01:22:54.368Z,98878.34
2018-03-21T01:25:25.347Z,98873.22
2018-03-21T01:27:56.862Z,98873.27
2018-03-21T01:30:28.565Z,98874.88
2018-03-21T01:32:59.182Z,98876.64
2018-03-21T01:35:29.947Z,98873.21
2018-03-21T01:38:00.743Z,98864.77
2018-03-21T01:40:31.621Z,98872.51
2018-03-21T01:43:02.382Z,98874.25
2018-03-21T01:45:33.381Z,98876.88
2018-03-21T01:48:04.220Z,98864.44
2018-03-21T01:50:35.347Z,98865.37
2018-03-21T01:53:12.442Z,98869.27
2018-03-21T01:55:43.275Z,98868.89
2018-03-21T01:58:14.059Z,98867.20
2018-03-21T02:00:44.633Z,98870.55
2018-03-21T02:03:15.376Z,98865.82
2018-03-21T02:05:58.274Z,98869.67
2018-03-21T02:09:12.663Z,98871.44
2018-03-21T02:11:52.755Z,98865.45
2018-03-21T02:14:25.447Z,98869.31
2018-03-21T02:17:02.272Z,98874.88
2018-03-21T02:19:41.751Z,98868.52
2018-03-21T02:25:49.453Z,98872.01
2018-03-21T02:28:19.981Z,98874.53
2018-03-21T02:30:50.630Z,98877.09
2018-03-21T02:33:21.308Z,98877.11
2018-03-21T02:35:52.028Z,98881.40
2018-03-21T02:38:22.647Z,98876.30
2018-03-21T02:40:53.341Z,98883.50
2018-03-21T02:43:24.028Z,98880.59
2018-03-21T02:45:54.802Z,98885.75
2018-03-21T02:48:25.425Z,98888.33
2018-03-21T02:50:56.185Z,98892.58
2018-03-21T02:53:26.841Z,98892.59
2018-03-21T02:55:57.546Z,98894.28
2018-03-21T02:58:28.609Z,98899.03
2018-03-21T03:00:59.284Z,98900.69
2018-03-21T03:03:29.900Z,98893.42
2018-03-21T03:06:00.505Z,98895.20
2018-03-21T03:08:31.253Z,98901.63
2018-03-21T03:11:01.918Z,98906.31
2018-03-21T03:13:32.674Z,98894.76
2018-03-21T03:16:03.425Z,98895.66
2018-03-21T03:18:34.219Z,98901.66
2018-03-21T03:21:04.998Z,98906.81
2018-03-21T03:23:36.103Z,98911.08
2018-03-21T03:26:07.204Z,98912.81
2018-03-21T03:28:37.888Z,98914.52
2018-03-21T03:31:08.625Z,98917.51
2018-03-21T03:33:39.384Z,98917.52
2018-03-21T03:36:10.101Z,98914.11
2018-03-21T03:38:40.726Z,98917.09
2018-03-21T03:41:11.701Z,98921.41
2018-03-21T03:43:42.250Z,98921.82
2018-03-21T03:46:18.096Z,98923.14
2018-03-21T03:48:48.656Z,98920.55
2018-03-21T03:51:19.299Z,98920.92
2018-03-21T03:53:50.159Z,98916.30
2018-03-21T03:56:20.752Z,98914.52
2018-03-21T03:58:51.407Z,98915.00
2018-03-21T04:01:22.047Z,98911.63
2018-03-21T04:03:52.659Z,98912.89
2018-03-21T04:06:23.293Z,98915.45
2018-03-21T04:08:54.771Z,98913.34
2018-03-21T04:11:25.379Z,98917.15
2018-03-21T04:13:56.003Z,98917.17
2018-03-21T04:16:26.620Z,98915.05
2018-03-21T04:21:45.447Z,98920.64
2018-03-21T04:24:16.332Z,98918.50
2018-03-21T04:26:52.671Z,98922.70
2018-03-21T04:29:28.187Z,98925.35
2018-03-21T04:31:58.850Z,98927.90
2018-03-21T04:34:29.450Z,98927.06
2018-03-21T04:37:12.300Z,98922.45
2018-03-21T04:39:42.920Z,98926.72
2018-03-21T04:42:13.601Z,98927.20
2018-03-21T04:44:47.136Z,98930.59
2018-03-21T04:47:19.125Z,98931.07
2018-03-21T04:49:51.207Z,98935.78
2018-03-21T04:52:22.283Z,98930.67
2018-03-21T04:54:55.454Z,98932.81
2018-03-21T04:57:26.576Z,98939.65
2018-03-21T04:59:57.656Z,98930.66
2018-03-21T05:02:28.441Z,98934.51
2018-03-21T05:04:59.172Z,98934.94
2018-03-21T05:07:29.754Z,98935.39
2018-03-21T05:10:01.290Z,98939.64
2018-03-21T05:12:31.989Z,98937.07
2018-03-21T05:15:02.567Z,98937.06
2018-03-21T05:17:33.188Z,98948.63
2018-03-21T05:20:04.224Z,98939.20
2018-03-21T05:22:34.766Z,98947.77
2018-03-21T05:25:07.022Z,98953.73
2018-03-21T05:27:37.754Z,98958.00
2018-03-21T05:30:10.130Z,98960.97
2018-03-21T05:32:40.800Z,98966.95
2018-03-21T05:35:12.338Z,98971.22
2018-03-21T05:37:44.278Z,98966.51
2018-03-21T05:40:15.183Z,98969.50
2018-03-21T05:42:45.793Z,98978.02
2018-03-21T05:45:16.319Z,98974.65
2018-03-21T05:47:47.357Z,98980.19
2018-03-21T05:50:22.965Z,98983.17
2018-03-21T05:52:53.456Z,98982.72
2018-03-21T05:55:24.433Z,98993.39
2018-03-21T05:57:55.023Z,98995.54
2018-03-21T06:00:25.539Z,99000.25
2018-03-21T06:03:01.222Z,99001.14
2018-03-21T06:05:32.030Z,98998.52
2018-03-21T06:08:02.641Z,99007.03
2018-03-21T06:10:38.098Z,98998.16
2018-03-21T06:13:10.442Z,99008.38
2018-03-21T06:15:41.231Z,99007.05
2018-03-21T06:18:12.200Z,99013.91
2018-03-21T06:20:42.775Z,99019.09
2018-03-21T06:23:13.355Z,99012.27
2018-03-21T06:25:47.830Z,99014.41
2018-03-21T06:28:18.511Z,99021.27
2018-03-21T06:30:49.218Z,99021.70
2018-03-21T06:33:20.319Z,99023.81
2018-03-21T06:35:50.873Z,99024.69
2018-03-21T06:38:21.382Z,99031.55
2018-03-21T06:40:52.308Z,99033.27
2018-03-21T06:43:22.908Z,99035.81
2018-03-21T06:46:00.997Z,99037.12
2018-03-21T06:48:31.902Z,99049.10
2018-03-21T06:51:02.566Z,99049.95
2018-03-21T06:53:33.158Z,99055.11
2018-03-21T06:56:04.161Z,99054.27
2018-03-21T06:58:34.861Z,99058.94
2018-03-21T07:01:05.510Z,99059.72
2018-03-21T07:03:36.748Z,99059.23
2018-03-21T07:06:07.413Z,99064.73
2018-03-21T07:08:38.202Z,99067.31
2018-03-21T07:11:09.218Z,99067.97
2018-03-21T07:13:48.114Z,99075.25
2018-03-21T07:16:28.960Z,99075.23
2018-03-21T07:18:59.916Z,99072.58
2018-03-21T07:21:32.949Z,99075.88
2018-03-21T07:24:03.636Z,99085.63
2018-03-21T07:26:35.136Z,99084.23
2018-03-21T07:29:05.879Z,99083.52
2018-03-21T07:31:36.651Z,99093.15
2018-03-21T07:34:07.622Z,99096.89
2018-03-21T07:36:40.039Z,99094.94
2018-03-21T07:39:10.127Z,99091.61
2018-03-21T07:41:40.736Z,99099.22
2018-03-21T07:44:11.402Z,99104.91
2018-03-21T07:46:42.612Z,99107.86
2018-03-21T07:49:13.360Z,99113.06
2018-03-21T07:51:43.972Z,99113.17
2018-03-21T07:54:14.559Z,99120.05
2018-03-21T07:56:45.655Z,99118.83
2018-03-21T07:59:16.491Z,99122.34
2018-03-21T08:01:47.250Z,99134.55
2018-03-21T08:04:18.782Z,99127.36
2018-03-21T08:06:49.454Z,99135.48
2018-03-21T08:09:20.340Z,99137.31
2018-03-21T08:11:53.303Z,99140.53
2018-03-21T08:14:23.928Z,99150.23
2018-03-21T08:16:54.523Z,99149.84
2018-03-21T08:19:26.796Z,99147.37
2018-03-21T08:21:57.390Z,99152.11
2018-03-21T08:24:28.199Z,99152.60
2018-03-21T08:27:00.492Z,99157.70
2018-03-21T08:29:31.303Z,99157.66
2018-03-21T08:32:02.295Z,99159.05
2018-03-21T08:37:20.202Z,99164.41
2018-03-21T08:39:54.506Z,99162.01
2018-03-21T08:42:25.462Z,99166.70
2018-03-21T08:44:56.332Z,99164.18
2018-03-21T08:47:30.360Z,99170.80
2018-03-21T08:50:01.184Z,99168.70
2018-03-21T08:52:31.882Z,99169.50
2018-03-21T08:55:02.732Z,99173.31
2018-03-21T08:57:33.819Z,99174.34
2018-03-21T09:00:04.646Z,99175.80
2018-03-21T09:02:35.296Z,99177.22
2018-03-21T09:05:07.672Z,99171.36
2018-03-21T09:07:39.652Z,99175.58
2018-03-21T09:10:11.012Z,99176.92
2018-03-21T09:12:42.109Z,99172.28
2018-03-21T09:15:14.424Z,99177.16
2018-03-21T09:17:46.480Z,99178.77
2018-03-21T09:20:17.166Z,99180.70
2018-03-21T09:22:47.830Z,99175.80
2018-03-21T09:25:18.602Z,99173.40
2018-03-21T09:27:49.675Z,99185.28
2018-03-21T09:30:20.451Z,99183.39
2018-03-21T09:32:51.034Z,99180.00
2018-03-21T09:35:25.194Z,99179.92
2018-03-21T09:37:56.006Z,99187.88
2018-03-21T09:40:26.945Z,99191.86
2018-03-21T09:42:58.495Z,99190.20
2018-03-21T09:45:29.115Z,99186.86
2018-03-21T09:47:59.727Z,99180.95
2018-03-21T09:50:30.556Z,99175.60
2018-03-21T09:53:01.310Z,99176.48
2018-03-21T09:55:32.231Z,99178.84
2018-03-21T09:58:02.843Z,99177.92
2018-03-21T10:00:33.488Z,99176.66
2018-03-21T10:03:04.483Z,99173.41
2018-03-21T10:05:35.302Z,99169.36
2018-03-21T10:08:05.907Z,99163.13
2018-03-21T10:10:36.954Z,99158.08
2018-03-21T10:13:07.810Z,99157.86
2018-03-21T10:15:38.572Z,99153.63
2018-03-21T10:18:09.623Z,99153.72
2018-03-21T10:20:40.414Z,99146.29
2018-03-21T10:23:11.289Z,99157.84
2018-03-21T10:25:43.428Z,99157.41
2018-03-21T10:28:14.160Z,99157.23
2018-03-21T10:30:44.804Z,99153.50
2018-03-21T10:33:15.744Z,99162.03
2018-03-21T10:35:46.558Z,99154.09
2018-03-21T10:38:17.688Z,99155.75
2018-03-21T10:40:48.723Z,99154.98
2018-03-21T10:43:19.717Z,99155.20
2018-03-21T10:45:51.008Z,99158.21
2018-03-21T10:48:21.776Z,99162.29
2018-03-21T10:50:53.119Z,99161.91
2018-03-21T10:53:23.848Z,99163.01
2018-03-21T10:55:54.710Z,99151.02
2018-03-21T10:58:26.040Z,99150.13
2018-03-21T11:00:57.035Z,99154.09
2018-03-21T11:03:27.964Z,99163.83
2018-03-21T11:06:01.866Z,99160.23
2018-03-21T11:08:33.952Z,99159.08
2018-03-21T11:11:05.264Z,99151.46
2018-03-21T11:13:36.729Z,99158.22
2018-03-21T11:16:07.832Z,99149.47
2018-03-21T11:18:39.509Z,99152.00
2018-03-21T11:21:13.835Z,99152.08
2018-03-21T11:23:44.824Z,99145.26
2018-03-21T11:26:15.567Z,99142.67
2018-03-21T11:28:48.154Z,99145.08
2018-03-21T11:31:18.816Z,99144.41
2018-03-21T11:33:50.179Z,99149.27
2018-03-21T11:36:21.397Z,99151.02
2018-03-21T11:38:52.080Z,99143.34
2018-03-21T11:41:22.908Z,99139.21
2018-03-21T11:43:54.892Z,99139.09
2018-03-21T11:46:25.568Z,99146.45
2018-03-21T11:48:56.202Z,99136.22
2018-03-21T11:51:27.164Z,99137.66
2018-03-21T11:53:58.046Z,99130.09
2018-03-21T11:56:28.631Z,99132.27
2018-03-21T11:59:02.360Z,99141.74
2018-03-21T12:01:33.344Z,99138.90
2018-03-21T12:04:04.061Z,99134.67
2018-03-21T12:06:36.943Z,99137.18
2018-03-21T12:09:08.010Z,99133.84
2018-03-21T12:11:38.757Z,99128.04
2018-03-21T12:14:09.695Z,99127.38
2018-03-21T12:16:40.372Z,99116.02
2018-03-21T12:19:11.212Z,99109.27
2018-03-21T12:21:43.654Z,99110.69
2018-03-21T12:24:14.573Z,99109.29
2018-03-21T12:26:45.422Z,99100.02
2018-03-21T12:29:18.682Z,99109.66
2018-03-21T12:31:49.672Z,99106.84
2018-03-21T12:34:20.603Z,99109.75
2018-03-21T12:36:51.787Z,99115.13
2018-03-21T12:39:22.770Z,99112.17
2018-03-21T12:41:53.600Z,99109.58
2018-03-21T12:44:24.696Z,99098.47
2018-03-21T12:46:55.576Z,99106.28
2018-03-21T12:49:26.120Z,99104.73
2018-03-21T12:51:58.719Z,99099.45
2018-03-21T12:54:29.600Z,99098.34
2018-03-21T12:57:00.564Z,99102.29
2018-03-21T12:59:31.463Z,99093.29
2018-03-21T13:02:02.201Z,99104.05
2018-03-21T13:04:49.899Z,99096.52
2018-03-21T13:07:20.544Z,99101.98
2018-03-21T13:09:51.246Z,99094.70
2018-03-21T13:12:25.928Z,99087.40
2018-03-21T13:14:56.896Z,99086.43
2018-03-21T13:17:27.783Z,99089.64
2018-03-21T13:20:00.564Z,99099.05
2018-03-21T13:22:32.555Z,99090.62
2018-03-21T13:25:03.901Z,99083.39
2018-03-21T13:27:34.980Z,99084.52
2018-03-21T13:30:06.798Z,99088.30
2018-03-21T13:35:30.035Z,99085.28
2018-03-21T13:38:01.664Z,99090.23
2018-03-21T13:40:32.622Z,99091.42
2018-03-21T13:43:03.492Z,99080.97
2018-03-21T13:45:34.256Z,99084.31
2018-03-21T13:48:06.292Z,99078.92
2018-03-21T13:50:37.067Z,99077.19
2018-03-21T13:53:07.264Z,99073.56
2018-03-21T13:55:39.935Z,99075.79
2018-03-21T13:58:10.840Z,99081.48
2018-03-21T14:00:41.701Z,99082.92
2018-03-21T14:03:14.340Z,99079.37
2018-03-21T14:05:44.916Z,99078.67
2018-03-21T14:08:15.504Z,99085.07
2018-03-21T14:10:46.407Z,99089.13
2018-03-21T14:13:17.448Z,99077.70
2018-03-21T14:15:49.000Z,99076.86
2018-03-21T14:18:19.888Z,99080.17
2018-03-21T14:20:50.673Z,99083.56
2018-03-21T14:23:22.300Z,99082.98
2018-03-21T14:25:53.306Z,99090.77
2018-03-21T14:28:23.931Z,99080.39
2018-03-21T14:30:56.107Z,99080.61
2018-03-21T14:33:28.090Z,99084.81
2018-03-21T14:35:59.045Z,99082.69
2018-03-21T14:38:29.750Z,99075.01
2018-03-21T14:41:00.376Z,99071.84
2018-03-21T14:43:38.084Z,99079.58
2018-03-21T14:46:08.744Z,99076.83
2018-03-21T14:48:39.340Z,99074.44
2018-03-21T14:51:13.380Z,99071.12
2018-03-21T14:53:44.224Z,99078.89
2018-03-21T14:56:14.940Z,99078.01
2018-03-21T14:58:47.214Z,99077.38
2018-03-21T15:01:17.836Z,99071.44
2018-03-21T15:03:48.636Z,99075.52
2018-03-21T15:06:19.708Z,99073.61
2018-03-21T15:08:51.149Z,99070.20
2018-03-21T15:11:22.248Z,99068.01
2018-03-21T15:13:52.946Z,99070.42
2018-03-21T15:16:24.243Z,99081.15
2018-03-21T15:18:55.151Z,99079.97
2018-03-21T15:21:26.972Z,99082.50
2018-03-21T15:23:57.755Z,99077.24
2018-03-21T15:26:28.540Z,99071.81
2018-03-21T15:28:59.563Z,99059.62
2018-03-21T15:31:31.432Z,99057.76
2018-03-21T15:34:02.460Z,99060.26
2018-03-21T15:36:33.399Z,99059.61
2018-03-21T15:39:08.171Z,99051.75
2018-03-21T15:41:38.875Z,99053.52
2018-03-21T15:44:09.968Z,99055.63
2018-03-21T15:46:42.043Z,99052.12
2018-03-21T15:49:12.870Z,99053.77
2018-03-21T15:51:43.814Z,99056.89
2018-03-21T15:54:16.033Z,99053.23
2018-03-21T15:56:46.900Z,99058.92
2018-03-21T15:59:17.579Z,99060.59
2018-03-21T16:01:50.932Z,99055.92
2018-03-21T16:04:21.603Z,99057.02
2018-03-21T16:06:52.935Z,99059.80
2018-03-21T16:09:26.333Z,99060.67
2018-03-21T16:11:57.170Z,99053.42
2018-03-21T16:14:29.288Z,99057.00
2018-03-21T16:16:59.930Z,99057.33
2018-03-21T16:19:30.736Z,99074.11
2018-03-21T16:22:01.988Z,99074.19
2018-03-21T16:24:32.595Z,99080.81
2018-03-21T16:27:04.064Z,99085.17
2018-03-21T16:29:36.390Z,99081.02
2018-03-21T16:32:07.158Z,99084.68
2018-03-21T16:34:37.933Z,99095.82
2018-03-21T16:37:12.735Z,99099.44
2018-03-21T16:39:43.403Z,99105.34
2018-03-21T16:42:14.103Z,99102.22
2018-03-21T16:44:53.227Z,99102.06
2018-03-21T16:47:23.875Z,99099.58
2018-03-21T16:49:55.385Z,99099.61
2018-03-21T16:52:26.019Z,99102.81
2018-03-21T16:54:56.658Z,99099.09
2018-03-21T16:57:27.854Z,99105.23
2018-03-21T16:59:58.562Z,99104.52
2018-03-21T17:02:30.216Z,99097.91
2018-03-21T17:05:01.373Z,99099.63
2018-03-21T17:07:32.120Z,99099.25
2018-03-21T17:10:02.944Z,99093.23
2018-03-21T17:12:35.336Z,99090.89
2018-03-21T17:15:06.208Z,99093.34
2018-03-21T17:17:37.098Z,99092.70
2018-03-21T17:20:09.047Z,99096.17
2018-03-21T17:22:39.647Z,99097.01
2018-03-21T17:25:12.253Z,99099.00
2018-03-21T17:27:43.135Z,99099.53
2018-03-21T17:30:14.162Z,99097.78
2018-03-21T17:32:45.723Z,99098.45
2018-03-21T17:35:16.706Z,99103.88
2018-03-21T17:37:48.843Z,99103.37
2018-03-21T17:40:19.651Z,99107.43
2018-03-21T17:42:50.506Z,99101.41
2018-03-21T17:45:21.747Z,99099.60
2018-03-21T17:47:52.505Z,99103.89
2018-03-21T17:50:23.458Z,99110.94
2018-03-21T17:52:54.305Z,99109.75
2018-03-21T17:55:25.093Z,99111.81
2018-03-21T17:58:00.882Z,99114.06
2018-03-21T18:00:31.551Z,99119.04
2018-03-21T18:03:02.449Z,99121.77
2018-03-21T18:05:33.829Z,99120.48
2018-03-21T18:08:04.832Z,99124.25
2018-03-21T18:10:35.500Z,99126.88
2018-03-21T18:13:08.985Z,99127.81
2018-03-21T18:15:40.002Z,99129.61
2018-03-21T18:18:11.607Z,99134.73
2018-03-21T18:20:43.126Z,99133.41
2018-03-21T18:23:14.070Z,99135.62
2018-03-21T18:25:45.122Z,99137.63
2018-03-21T18:28:18.916Z,99145.00
2018-03-21T18:30:49.667Z,99143.72
2018-03-21T18:33:21.284Z,99147.27
2018-03-21T18:35:53.207Z,99150.38
2018-03-21T18:38:24.246Z,99143.96
2018-03-21T18:40:54.927Z,99146.99
2018-03-21T18:43:27.075Z,99149.67
2018-03-21T18:45:58.544Z,99141.45
2018-03-21T18:48:32.460Z,99146.38
2018-03-21T18:51:09.260Z,99137.00
2018-03-21T18:53:47.551Z,99134.40
2018-03-21T18:56:19.758Z,99142.91
2018-03-21T18:58:50.529Z,99134.05
2018-03-21T19:01:21.166Z,99130.23
2018-03-21T19:03:54.244Z,99130.22
2018-03-21T19:06:25.285Z,99125.95
2018-03-21T19:08:59.607Z,99133.28
2018-03-21T19:11:32.727Z,99130.70
2018-03-21T19:14:03.355Z,99128.53
2018-03-21T19:16:34.816Z,99134.67
2018-03-21T19:19:08.357Z,99132.14
2018-03-21T19:21:39.152Z,99126.13
2018-03-21T19:24:10.089Z,99126.59
2018-03-21T19:26:41.182Z,99121.42
2018-03-21T19:29:12.095Z,99125.27
2018-03-21T19:31:42.734Z,99118.86
2018-03-21T19:34:13.807Z,99117.58
2018-03-21T19:36:44.486Z,99115.47
2018-03-21T19:39:15.808Z,99113.73
2018-03-21T19:41:46.656Z,99114.99
2018-03-21T19:44:17.741Z,99111.15
2018-03-21T19:46:51.509Z,99114.98
2018-03-21T19:49:22.794Z,99112.45
2018-03-21T19:51:54.773Z,99116.39
2018-03-21T19:54:26.328Z,99116.42
2018-03-21T19:56:57.115Z,99110.02
2018-03-21T19:59:28.026Z,99106.59
2018-03-21T20:01:59.112Z,99111.28
2018-03-21T20:04:29.836Z,99117.80
2018-03-21T20:07:03.328Z,99117.35
2018-03-21T20:09:34.051Z,99116.46
2018-03-21T20:12:05.333Z,99113.06
2018-03-21T20:14:36.290Z,99114.36
2018-03-21T20:17:07.093Z,99116.09
2018-03-21T20:19:37.760Z,99111.84
2018-03-21T20:22:09.442Z,99121.22
2018-03-21T20:24:40.096Z,99109.27
2018-03-21T20:27:10.734Z,99117.83
2018-03-21T20:29:44.874Z,99115.67
2018-03-21T20:32:15.784Z,99115.28
2018-03-21T20:34:46.774Z,99108.87
2018-03-21T20:37:17.440Z,99111.89
2018-03-21T20:39:48.010Z,99108.00
2018-03-21T20:42:23.988Z,99106.77
2018-03-21T20:44:54.674Z,99108.91
2018-03-21T20:47:25.905Z,99109.34
2018-03-21T20:49:57.236Z,99106.78
2018-03-21T20:52:28.056Z,99111.55
2018-03-21T20:54:59.663Z,99108.95
2018-03-21T20:57:37.690Z,99108.98
2018-03-21T21:00:12.271Z,99108.09
2018-03-21T21:02:44.274Z,99109.00
2018-03-21T21:05:15.000Z,99113.67
2018-03-21T21:07:46.037Z,99103.83
2018-03-21T21:10:18.315Z,99104.27
2018-03-21T21:12:49.122Z,99106.84
2018-03-21T21:15:19.776Z,99096.13
2018-03-21T21:17:50.870Z,99103.86
2018-03-21T21:20:21.855Z,99104.28
2018-03-21T21:22:52.653Z,99098.31
2018-03-21T21:25:23.713Z,99097.45
2018-03-21T21:27:54.437Z,99099.15
2018-03-21T21:30:25.020Z,99096.17
2018-03-21T21:32:55.942Z,99086.33
2018-03-21T21:35:26.593Z,99082.90
2018-03-21T21:37:57.200Z,99081.64
2018-03-21T21:40:28.297Z,99076.06
2018-03-21T21:42:59.203Z,99084.19
2018-03-21T21:45:30.055Z,99080.33
2018-03-21T21:48:04.015Z,99068.80
2018-03-21T21:50:34.682Z,99067.94
2018-03-21T21:53:05.658Z,99067.50
2018-03-21T21:55:37.464Z,99071.37
2018-03-21T21:58:08.191Z,99065.38
2018-03-21T22:00:40.514Z,99061.94
2018-03-21T22:03:11.102Z,99060.67
2018-03-21T22:05:41.563Z,99063.68
2018-03-21T22:08:12.286Z,99060.66
2018-03-21T22:10:43.118Z,99055.55
2018-03-21T22:13:15.344Z,99049.98
2018-03-21T22:15:46.241Z,99052.11
2018-03-21T22:18:18.166Z,99051.69
2018-03-21T22:20:49.311Z,99052.10
2018-03-21T22:23:20.715Z,99044.00
2018-03-21T22:25:51.213Z,99039.28
2018-03-21T22:28:21.837Z,99041.00
2018-03-21T22:30:52.605Z,99038.01
2018-03-21T22:33:23.587Z,99040.15
2018-03-21T22:35:54.465Z,99033.70
2018-03-21T22:38:25.039Z,99026.03
2018-03-21T22:40:58.243Z,99030.73
2018-03-21T22:43:28.979Z,99030.28
2018-03-21T22:46:00.509Z,99027.28
2018-03-21T22:48:32.517Z,99020.03
2018-03-21T22:51:03.355Z,99020.48
2018-03-21T22:53:34.136Z,99020.89
2018-03-21T22:56:07.235Z,99013.62
2018-03-21T22:58:37.914Z,99015.75
2018-03-21T23:01:08.748Z,99008.47
2018-03-21T23:03:45.159Z,99006.75
2018-03-21T23:06:15.749Z,99001.63
2018-03-21T23:08:48.723Z,98999.50
2018-03-21T23:11:19.898Z,98988.80
2018-03-21T23:13:50.553Z,98987.52
2018-03-21T23:16:21.339Z,98980.25
2018-03-21T23:18:51.898Z,98976.38
2018-03-21T23:21:22.593Z,98978.97
2018-03-21T23:23:53.516Z,98978.13
2018-03-21T23:26:24.060Z,98981.54
2018-03-21T23:28:54.663Z,98980.23
2018-03-21T23:31:25.567Z,98979.80
2018-03-21T23:33:56.396Z,98978.08
2018-03-21T23:36:27.101Z,98983.64
2018-03-21T23:38:57.978Z,98984.08
2018-03-21T23:41:28.697Z,98980.66
2018-03-21T23:44:00.275Z,98982.36
2018-03-21T23:46:30.825Z,98985.36
2018-03-21T23:49:01.574Z,98989.17
2018-03-21T23:51:32.045Z,98978.93
2018-03-21T23:54:02.589Z,98972.10
2018-03-21T23:56:33.664Z,98977.64
2018-03-21T23:59:04.457Z,98974.66
